Time;durP1;ratioP1;P1;durP2;ratioP2;P2;SDS_P1;SDS_P2;PMS_P1;PMS_P2;Temp;Humidity;BMP_temperature;BMP_pressure;BME280_temperature;BME280_humidity;BME280_pressure;Samples;Min_cycle;Max_cycle;Signal;HPM_P1;HPM_P2
2022/04/06 00:00:52;;;;;;;6.80;4.30;;;;;;;5.65;83.13;95573.67;108059;1270;44255;-75
2022/04/06 00:03:23;;;;;;;5.80;4.70;;;;;;;5.64;82.89;95569.67;108076;1270;45011;-75
2022/04/06 00:05:54;;;;;;;4.90;3.70;;;;;;;5.65;83.00;95569.77;108100;1270;30653;-75
2022/04/06 00:08:25;;;;;;;5.30;4.80;;;;;;;5.73;82.85;95573.82;108025;1270;40211;-75
2022/04/06 00:10:56;;;;;;;4.10;3.40;;;;;;;5.74;82.78;95568.71;108026;1271;46139;-75
2022/04/06 00:13:27;;;;;;;5.30;4.00;;;;;;;5.76;82.79;95560.65;108113;1269;41664;-75
2022/04/06 00:15:58;;;;;;;4.30;3.50;;;;;;;5.80;82.50;95564.90;108185;1270;34086;-74
2022/04/06 00:18:29;;;;;;;4.60;4.10;;;;;;;5.82;82.69;95568.77;108110;1270;37038;-75
2022/04/06 00:21:00;;;;;;;4.00;3.30;;;;;;;5.85;82.31;95565.17;108106;1269;34226;-75
2022/04/06 00:23:31;;;;;;;4.80;4.10;;;;;;;5.88;82.46;95560.98;108047;1270;44275;-74
2022/04/06 00:26:03;;;;;;;4.80;3.20;;;;;;;5.89;82.31;95566.20;108194;1270;40130;-74
2022/04/06 00:28:34;;;;;;;4.10;3.30;;;;;;;5.89;82.12;95569.83;108123;1270;34051;-75
2022/04/06 00:31:05;;;;;;;5.60;3.30;;;;;;;5.88;82.24;95573.73;108069;1270;59143;-76
2022/04/06 00:33:37;;;;;;;5.90;3.40;;;;;;;5.88;82.34;95574.52;108105;1270;33791;-75
2022/04/06 00:36:09;;;;;;;3.60;3.10;;;;;;;5.90;82.21;95570.05;107198;1270;1298773;-75
2022/04/06 00:38:40;;;;;;;5.30;3.30;;;;;;;5.93;82.31;95565.42;108103;1270;40163;-75
2022/04/06 00:41:10;;;;;;;2.80;2.20;;;;;;;5.93;82.35;95568.36;108116;1270;43793;-75
2022/04/06 00:43:41;;;;;;;4.90;3.60;;;;;;;5.90;82.19;95566.16;108079;1270;31075;-75
2022/04/06 00:46:12;;;;;;;4.90;4.30;;;;;;;5.89;82.39;95567.56;108114;1270;34817;-75
2022/04/06 00:48:43;;;;;;;4.80;3.40;;;;;;;5.86;82.42;95571.80;108101;1270;43338;-75
2022/04/06 00:51:14;;;;;;;4.20;3.00;;;;;;;5.85;82.27;95562.33;108099;1270;43519;-75
2022/04/06 00:53:45;;;;;;;4.00;3.20;;;;;;;5.87;82.43;95574.27;108031;1271;31764;-75
2022/04/06 00:56:16;;;;;;;6.00;3.00;;;;;;;5.88;82.46;95574.62;108115;1270;37718;-75
2022/04/06 00:58:47;;;;;;;4.50;4.10;;;;;;;5.93;82.43;95578.88;108106;1269;32767;-75
2022/04/06 01:01:18;;;;;;;4.40;3.10;;;;;;;5.96;82.38;95588.70;108111;1270;31886;-75
2022/04/06 01:03:49;;;;;;;3.60;2.70;;;;;;;5.98;82.13;95565.07;108129;1270;40841;-75
2022/04/06 01:06:23;;;;;;;5.70;5.00;;;;;;;5.99;82.07;95565.89;108176;1268;34629;-75
2022/04/06 01:08:55;;;;;;;5.90;4.10;;;;;;;5.99;82.10;95563.05;107987;1271;44390;-75
2022/04/06 01:11:26;;;;;;;6.40;4.80;;;;;;;5.94;82.07;95554.20;108120;1270;30083;-75
2022/04/06 01:13:58;;;;;;;4.50;3.70;;;;;;;5.94;82.21;95551.32;108093;1270;39846;-75
2022/04/06 01:16:28;;;;;;;5.10;4.00;;;;;;;5.98;82.25;95563.17;108130;1270;28307;-75
2022/04/06 01:18:59;;;;;;;4.90;3.70;;;;;;;5.97;82.18;95555.13;108161;1270;33092;-75
2022/04/06 01:21:30;;;;;;;5.90;3.90;;;;;;;5.93;82.04;95547.27;108200;1270;43165;-75
2022/04/06 01:24:01;;;;;;;4.80;3.30;;;;;;;5.89;82.12;95560.46;108137;1270;31824;-75
2022/04/06 01:26:34;;;;;;;6.10;5.20;;;;;;;5.87;82.32;95561.01;108094;1270;31445;-75
2022/04/06 01:29:05;;;;;;;6.70;3.60;;;;;;;5.86;82.51;95558.11;108094;1270;43962;-75
2022/04/06 01:31:36;;;;;;;5.70;4.90;;;;;;;5.86;82.45;95555.69;108080;1270;42708;-75
2022/04/06 01:34:11;;;;;;;6.90;5.00;;;;;;;5.80;82.33;95559.11;108049;1270;41771;-75
2022/04/06 01:36:49;;;;;;;4.50;3.20;;;;;;;5.73;82.18;95561.98;108106;1270;34218;-75
2022/04/06 01:39:20;;;;;;;5.50;4.60;;;;;;;5.69;82.43;95553.98;108095;1270;33362;-75
2022/04/06 01:41:51;;;;;;;5.70;4.50;;;;;;;5.64;82.57;95554.73;108010;1270;41840;-75
2022/04/06 01:44:22;;;;;;;5.90;3.60;;;;;;;5.65;83.11;95558.48;108132;1270;43506;-75
2022/04/06 01:46:53;;;;;;;5.60;4.30;;;;;;;5.67;82.94;95551.73;108164;1270;32263;-75
2022/04/06 01:52:15;;;;;;;7.20;5.50;;;;;;;5.71;83.20;95549.08;108118;1270;42699;-74
2022/04/06 01:54:48;;;;;;;5.70;4.60;;;;;;;5.77;83.23;95543.55;108154;1270;35520;-75
2022/04/06 01:57:21;;;;;;;4.80;3.40;;;;;;;5.81;83.28;95552.79;108031;1271;42589;-74
2022/04/06 01:59:52;;;;;;;5.00;4.50;;;;;;;5.86;83.21;95549.69;108189;1270;40202;-75
2022/04/06 02:02:25;;;;;;;6.00;5.30;;;;;;;5.92;83.20;95538.33;108085;1270;43411;-75
2022/04/06 02:04:56;;;;;;;5.30;4.10;;;;;;;5.99;82.75;95554.69;108221;1270;42213;-75
2022/04/06 02:07:27;;;;;;;4.60;3.30;;;;;;;6.02;82.62;95555.60;108149;1270;42893;-75
2022/04/06 02:10:00;;;;;;;4.60;3.50;;;;;;;6.05;82.58;95566.27;108063;1270;42240;-74
2022/04/06 02:12:32;;;;;;;5.90;3.50;;;;;;;6.07;82.55;95569.80;108149;1270;29620;-75
2022/04/06 02:15:03;;;;;;;6.10;3.40;;;;;;;6.05;82.62;95571.01;108171;1270;30759;-74
2022/04/06 02:17:34;;;;;;;6.00;4.70;;;;;;;6.09;82.57;95559.47;108087;1269;41423;-75
2022/04/06 02:20:06;;;;;;;4.00;3.10;;;;;;;6.12;82.67;95574.86;108110;1270;31652;-75
2022/04/06 02:22:37;;;;;;;6.50;4.90;;;;;;;6.12;82.57;95571.91;108057;1270;45155;-75
2022/04/06 02:25:09;;;;;;;5.20;3.10;;;;;;;6.12;82.79;95574.33;108118;1270;43041;-75
2022/04/06 02:27:50;;;;;;;6.40;4.20;;;;;;;6.13;82.65;95578.32;108016;1272;27626;-75
2022/04/06 02:30:22;;;;;;;4.10;3.70;;;;;;;6.18;82.58;95568.22;108094;1270;33191;-74
2022/04/06 02:32:53;;;;;;;4.70;3.30;;;;;;;6.21;82.46;95561.00;108035;1270;43730;-74
2022/04/06 02:35:24;;;;;;;7.90;5.80;;;;;;;6.22;82.42;95564.30;108087;1270;42284;-75
2022/04/06 02:37:55;;;;;;;5.70;3.80;;;;;;;6.23;82.29;95569.83;108149;1270;29692;-75
2022/04/06 02:40:26;;;;;;;4.50;3.00;;;;;;;6.25;82.33;95564.55;108025;1270;40247;-74
2022/04/06 02:42:57;;;;;;;5.90;3.80;;;;;;;6.33;82.14;95556.90;108081;1270;34358;-74
2022/04/06 02:45:27;;;;;;;3.70;2.70;;;;;;;6.36;82.05;95564.98;108009;1270;48433;-74
2022/04/06 02:47:58;;;;;;;4.30;3.30;;;;;;;6.35;81.94;95566.77;108093;1270;37035;-74
2022/04/06 02:50:29;;;;;;;4.50;3.10;;;;;;;6.31;82.00;95572.11;108139;1270;43663;-75
2022/04/06 02:53:00;;;;;;;6.00;3.60;;;;;;;6.34;82.01;95559.00;108139;1270;32950;-74
2022/04/06 02:55:31;;;;;;;5.30;4.70;;;;;;;6.37;81.76;95567.30;108103;1271;31318;-75
2022/04/06 02:58:02;;;;;;;4.50;3.40;;;;;;;6.35;81.94;95574.52;108091;1270;43623;-74
2022/04/06 03:00:33;;;;;;;4.20;3.30;;;;;;;6.33;82.10;95574.73;108154;1268;39676;-75
2022/04/06 03:03:03;;;;;;;6.00;4.90;;;;;;;6.34;82.16;95559.15;108096;1270;34128;-75
2022/04/06 03:05:34;;;;;;;4.10;2.80;;;;;;;6.35;82.16;95565.79;108069;1270;43633;-75
2022/04/06 03:08:06;;;;;;;4.30;3.40;;;;;;;6.33;82.13;95571.16;108123;1270;27978;-75
2022/04/06 03:10:37;;;;;;;4.40;3.10;;;;;;;6.33;82.18;95567.45;108107;1270;29809;-75
2022/04/06 03:13:08;;;;;;;5.10;4.30;;;;;;;6.33;82.23;95572.78;108045;1270;51827;-75
2022/04/06 03:15:39;;;;;;;3.70;2.80;;;;;;;6.34;82.36;95578.48;108069;1270;44923;-75
2022/04/06 03:18:11;;;;;;;17.80;10.30;;;;;;;6.35;82.10;95578.89;108083;1268;43675;-74
2022/04/06 03:20:42;;;;;;;41.60;16.10;;;;;;;6.34;82.07;95576.43;108111;1270;30534;-75
2022/04/06 03:23:14;;;;;;;4.20;3.40;;;;;;;6.36;82.19;95586.52;108191;1269;34676;-75
2022/04/06 03:25:45;;;;;;;5.40;4.30;;;;;;;6.36;82.17;95588.20;108125;1270;41317;-75
2022/04/06 03:28:16;;;;;;;4.70;4.30;;;;;;;6.34;82.07;95587.36;108014;1271;45297;-75
2022/04/06 03:30:47;;;;;;;5.60;3.70;;;;;;;6.30;82.13;95586.81;108061;1270;38582;-75
2022/04/06 03:33:17;;;;;;;7.30;4.50;;;;;;;6.24;82.27;95586.77;108131;1270;29985;-75
2022/04/06 03:35:49;;;;;;;4.80;4.00;;;;;;;6.21;82.48;95587.05;108062;1270;32357;-75
2022/04/06 03:38:20;;;;;;;5.70;4.30;;;;;;;6.18;82.63;95587.16;108052;1270;29973;-75
2022/04/06 03:40:50;;;;;;;4.70;4.20;;;;;;;6.20;82.71;95586.70;108055;1270;40411;-75
2022/04/06 03:43:21;;;;;;;5.10;4.00;;;;;;;6.17;82.50;95587.33;108122;1269;45241;-74
2022/04/06 03:45:52;;;;;;;3.80;2.40;;;;;;;6.12;82.56;95589.54;108083;1270;36152;-75
2022/04/06 03:48:23;;;;;;;6.40;4.70;;;;;;;6.08;82.80;95592.88;108070;1270;44473;-75
2022/04/06 03:50:55;;;;;;;4.70;4.00;;;;;;;6.08;83.12;95592.79;108053;1270;44019;-75
2022/04/06 03:53:26;;;;;;;3.80;2.70;;;;;;;6.15;83.20;95588.41;108078;1270;44449;-75
2022/04/06 03:55:57;;;;;;;4.10;2.80;;;;;;;6.18;83.40;95585.90;108103;1270;34677;-75
2022/04/06 03:58:29;;;;;;;4.50;3.00;;;;;;;6.21;83.19;95593.21;108067;1270;28296;-74
2022/04/06 04:01:00;;;;;;;4.90;4.40;;;;;;;6.22;83.29;95594.79;108179;1270;26719;-75
2022/04/06 04:03:30;;;;;;;5.60;4.40;;;;;;;6.24;83.33;95600.92;108077;1270;43598;-75
2022/04/06 04:06:01;;;;;;;3.40;2.90;;;;;;;6.23;83.25;95603.77;108136;1270;45077;-74
2022/04/06 04:08:32;;;;;;;4.10;3.60;;;;;;;6.30;83.54;95607.40;108077;1270;42374;-75
2022/04/06 04:11:03;;;;;;;6.30;3.60;;;;;;;6.41;83.42;95600.47;108140;1270;30227;-74
2022/04/06 04:13:35;;;;;;;8.40;5.40;;;;;;;6.47;82.91;95607.31;108092;1270;42576;-74
2022/04/06 04:16:06;;;;;;;5.50;4.30;;;;;;;6.44;82.70;95600.48;108044;1270;43890;-75
2022/04/06 04:18:37;;;;;;;5.20;3.40;;;;;;;6.41;82.84;95601.21;108089;1270;41364;-74
2022/04/06 04:23:56;;;;;;;3.50;3.00;;;;;;;6.33;82.98;95609.05;108115;1270;30273;-75
2022/04/06 04:26:27;;;;;;;6.70;4.60;;;;;;;6.34;83.19;95615.27;107976;1272;43126;-75
2022/04/06 04:28:58;;;;;;;5.80;3.30;;;;;;;6.37;82.87;95618.05;108125;1270;45252;-75
2022/04/06 04:31:29;;;;;;;21.40;8.20;;;;;;;6.37;82.93;95625.42;108080;1270;43969;-74
2022/04/06 04:34:01;;;;;;;6.70;3.90;;;;;;;6.35;83.18;95621.59;108122;1270;28224;-75
2022/04/06 04:36:32;;;;;;;7.90;4.90;;;;;;;6.39;83.29;95631.45;108065;1270;35432;-74
2022/04/06 04:39:04;;;;;;;6.20;5.30;;;;;;;6.40;83.44;95633.96;108146;1269;41072;-75
2022/04/06 04:41:34;;;;;;;6.20;4.80;;;;;;;6.42;83.32;95630.48;108067;1270;31626;-75
2022/04/06 04:44:06;;;;;;;6.50;5.00;;;;;;;6.40;83.26;95632.02;108096;1270;46826;-75
2022/04/06 04:46:37;;;;;;;6.50;4.70;;;;;;;6.39;83.36;95628.87;108107;1270;36071;-75
2022/04/06 04:49:08;;;;;;;6.70;4.10;;;;;;;6.38;83.50;95628.77;108017;1270;43115;-75
2022/04/06 04:51:39;;;;;;;5.20;4.40;;;;;;;6.42;83.57;95637.11;107990;1271;40768;-74
2022/04/06 04:54:10;;;;;;;5.50;4.10;;;;;;;6.45;83.49;95647.55;107987;1270;42097;-75
2022/04/06 04:56:42;;;;;;;4.50;3.10;;;;;;;6.48;83.54;95650.17;108039;1270;43551;-75
2022/04/06 04:59:13;;;;;;;6.50;5.80;;;;;;;6.51;83.36;95654.10;108089;1270;42365;-75
2022/04/06 05:01:44;;;;;;;6.30;4.50;;;;;;;6.52;83.09;95663.67;108099;1270;30821;-75
2022/04/06 05:04:15;;;;;;;6.20;4.10;;;;;;;6.52;83.23;95665.73;107997;1270;40956;-75
2022/04/06 05:06:46;;;;;;;5.40;3.60;;;;;;;6.52;83.40;95661.89;108007;1270;41636;-75
2022/04/06 05:09:17;;;;;;;6.50;5.10;;;;;;;6.52;83.43;95664.79;108084;1270;43294;-75
2022/04/06 05:11:48;;;;;;;6.70;4.90;;;;;;;6.52;83.31;95672.95;108087;1269;39041;-75
2022/04/06 05:14:19;;;;;;;7.90;6.10;;;;;;;6.50;83.54;95675.71;108065;1270;32511;-75
2022/04/06 05:16:50;;;;;;;4.50;3.30;;;;;;;6.49;83.51;95680.98;108096;1270;33182;-75
2022/04/06 05:19:21;;;;;;;6.30;4.40;;;;;;;6.49;83.48;95684.40;108005;1270;42375;-74
2022/04/06 05:21:52;;;;;;;7.60;6.30;;;;;;;6.54;83.41;95683.61;108071;1270;36973;-75
2022/04/06 05:24:23;;;;;;;7.60;6.10;;;;;;;6.58;83.49;95684.06;108037;1269;38769;-75
2022/04/06 05:26:54;;;;;;;8.30;6.90;;;;;;;6.63;83.25;95686.09;108084;1270;33248;-74
2022/04/06 05:29:25;;;;;;;6.40;4.50;;;;;;;6.70;83.00;95684.98;108053;1270;40018;-75
2022/04/06 05:31:56;;;;;;;7.50;5.60;;;;;;;6.81;83.02;95682.30;108069;1270;42290;-75
2022/04/06 05:34:27;;;;;;;7.40;5.80;;;;;;;6.96;83.02;95683.22;108110;1270;32296;-75
2022/04/06 05:36:58;;;;;;;7.80;6.00;;;;;;;7.05;82.35;95691.68;108011;1270;33060;-74
2022/04/06 05:39:29;;;;;;;6.30;5.30;;;;;;;7.10;82.09;95693.58;108096;1270;32526;-75
2022/04/06 05:42:00;;;;;;;9.40;7.30;;;;;;;7.09;82.09;95693.86;108111;1270;35452;-75
2022/04/06 05:44:31;;;;;;;4.80;3.80;;;;;;;7.09;81.89;95697.65;108039;1270;42417;-74
2022/04/06 05:47:02;;;;;;;7.60;6.70;;;;;;;7.06;81.98;95698.27;108123;1270;47066;-75
2022/04/06 05:49:33;;;;;;;8.30;6.80;;;;;;;7.05;81.84;95708.08;108085;1270;44934;-74
2022/04/06 05:52:04;;;;;;;5.90;3.90;;;;;;;7.08;81.72;95700.77;108116;1270;28952;-74
2022/04/06 05:54:36;;;;;;;6.40;4.60;;;;;;;7.16;81.77;95705.23;108101;1270;38505;-74
2022/04/06 05:57:07;;;;;;;3.90;3.50;;;;;;;7.24;81.73;95709.90;108039;1270;49890;-75
2022/04/06 05:59:39;;;;;;;8.10;6.30;;;;;;;7.31;81.56;95706.77;108017;1268;44596;-75
2022/04/06 06:02:11;;;;;;;7.80;5.40;;;;;;;7.34;81.47;95717.20;108051;1270;44406;-74
2022/04/06 06:04:42;;;;;;;8.10;6.50;;;;;;;7.38;81.44;95717.20;108028;1270;42278;-75
2022/04/06 06:07:13;;;;;;;7.70;5.50;;;;;;;7.37;81.35;95723.27;108106;1270;31636;-74
2022/04/06 06:09:45;;;;;;;6.90;5.90;;;;;;;7.35;81.50;95720.08;108058;1270;43548;-74
2022/04/06 06:12:16;;;;;;;8.40;6.50;;;;;;;7.35;81.45;95725.67;108057;1270;36284;-74
2022/04/06 06:14:47;;;;;;;7.60;5.40;;;;;;;7.37;81.38;95724.81;108026;1269;47884;-74
2022/04/06 06:17:18;;;;;;;8.10;6.80;;;;;;;7.40;81.45;95725.23;108049;1270;31727;-74
2022/04/06 06:19:49;;;;;;;6.30;3.80;;;;;;;7.43;81.41;95725.94;107943;1271;30661;-74
2022/04/06 06:22:20;;;;;;;8.50;6.90;;;;;;;7.44;81.33;95730.26;108086;1270;39132;-74
2022/04/06 06:24:52;;;;;;;6.10;5.00;;;;;;;7.50;81.40;95732.73;108065;1270;31994;-75
2022/04/06 06:27:24;;;;;;;8.60;6.80;;;;;;;7.54;81.68;95732.70;108125;1270;39181;-74
2022/04/06 06:29:55;;;;;;;9.20;7.10;;;;;;;7.60;81.42;95735.70;108070;1270;44028;-74
2022/04/06 06:32:26;;;;;;;7.30;6.50;;;;;;;7.63;81.33;95734.77;108019;1270;40738;-75
2022/04/06 06:34:57;;;;;;;9.20;6.90;;;;;;;7.67;81.10;95739.05;108058;1270;41862;-75
2022/04/06 06:37:28;;;;;;;10.30;7.30;;;;;;;7.79;81.13;95736.66;107965;1270;45336;-75
2022/04/06 06:39:59;;;;;;;10.00;6.60;;;;;;;7.93;80.88;95738.33;108095;1270;43307;-75
2022/04/06 06:42:31;;;;;;;9.40;7.80;;;;;;;8.14;80.67;95726.93;108118;1270;42618;-75
2022/04/06 06:45:02;;;;;;;9.60;8.40;;;;;;;8.85;80.30;95730.01;108100;1270;36609;-75
2022/04/06 06:47:33;;;;;;;8.40;7.50;;;;;;;10.38;79.66;95727.44;108188;1270;38624;-75
2022/04/06 06:50:05;;;;;;;7.70;6.40;;;;;;;11.60;75.19;95719.01;108074;1270;64551;-75
2022/04/06 06:52:36;;;;;;;7.10;6.30;;;;;;;12.72;70.71;95723.43;108052;1270;42866;-75
2022/04/06 06:55:09;;;;;;;6.80;6.10;;;;;;;12.27;68.08;95726.90;108060;1270;37233;-75
2022/04/06 06:57:40;;;;;;;8.30;7.20;;;;;;;11.69;68.89;95730.16;108019;1273;29796;-75
2022/04/06 07:00:12;;;;;;;7.00;6.30;;;;;;;12.15;69.86;95728.88;108043;1270;43367;-75
2022/04/06 07:02:43;;;;;;;6.80;6.20;;;;;;;12.99;68.82;95720.07;108178;1270;31657;-75
2022/04/06 07:05:14;;;;;;;7.30;6.10;;;;;;;14.44;66.51;95720.38;108082;1270;31785;-76
2022/04/06 07:07:52;;;;;;;6.70;6.00;;;;;;;14.74;63.15;95724.10;108009;1270;42804;-75
2022/04/06 07:10:24;;;;;;;7.80;6.20;;;;;;;15.11;60.73;95726.25;108004;1270;29802;-75
2022/04/06 07:12:55;;;;;;;6.60;6.00;;;;;;;15.11;60.32;95727.40;108135;1270;38193;-75
2022/04/06 07:15:27;;;;;;;7.20;5.00;;;;;;;15.87;58.08;95721.27;108039;1270;30400;-75
2022/04/06 07:17:59;;;;;;;6.10;5.50;;;;;;;15.81;56.67;95721.67;108086;1270;33269;-75
2022/04/06 07:20:30;;;;;;;5.80;5.00;;;;;;;16.61;57.67;95715.26;108112;1270;45157;-75
2022/04/06 07:23:01;;;;;;;5.50;4.70;;;;;;;17.42;53.78;95721.81;108038;1272;27258;-76
2022/04/06 07:25:33;;;;;;;4.90;4.40;;;;;;;17.20;52.85;95721.67;107956;1273;45981;-75
2022/04/06 07:28:04;;;;;;;5.10;4.70;;;;;;;16.87;53.17;95725.45;108150;1270;43483;-75
2022/04/06 07:30:36;;;;;;;4.90;4.40;;;;;;;17.54;53.11;95723.81;108035;1270;48009;-76
2022/04/06 07:33:09;;;;;;;4.40;4.00;;;;;;;17.59;50.69;95720.72;107978;1271;36188;-76
2022/04/06 07:35:40;;;;;;;4.40;4.00;;;;;;;17.30;51.09;95719.91;108076;1270;40551;-76
2022/04/06 07:38:12;;;;;;;4.80;4.40;;;;;;;17.86;49.38;95722.89;108018;1271;27561;-76
2022/04/06 07:40:43;;;;;;;5.30;4.80;;;;;;;18.60;49.82;95727.58;108000;1271;67312;-75
2022/04/06 07:43:14;;;;;;;4.50;3.80;;;;;;;18.92;47.90;95724.52;108057;1270;47454;-76
2022/04/06 07:45:47;;;;;;;4.60;4.20;;;;;;;19.27;47.45;95722.04;108076;1270;37903;-76
2022/04/06 07:48:18;;;;;;;4.10;3.80;;;;;;;19.67;45.44;95717.49;108113;1270;28704;-75
2022/04/06 07:50:49;;;;;;;4.00;3.70;;;;;;;19.87;45.85;95710.67;108098;1270;43210;-76
2022/04/06 07:53:20;;;;;;;2.90;2.70;;;;;;;20.26;44.98;95703.29;108055;1270;46277;-76
2022/04/06 07:55:51;;;;;;;3.10;2.90;;;;;;;20.90;43.87;95696.95;108111;1270;46931;-75
2022/04/06 07:58:23;;;;;;;2.70;2.50;;;;;;;21.08;42.82;95711.39;108035;1270;75975;-74
2022/04/06 08:00:54;;;;;;;3.10;2.80;;;;;;;21.12;41.80;95712.36;108147;1270;29540;-74
2022/04/06 08:03:25;;;;;;;3.70;3.40;;;;;;;21.00;41.62;95704.77;107954;1272;36522;-74
2022/04/06 08:05:56;;;;;;;3.50;3.20;;;;;;;20.96;42.13;95712.41;108095;1270;62754;-74
2022/04/06 08:08:27;;;;;;;4.30;3.80;;;;;;;20.89;41.70;95717.33;107965;1272;56129;-76
2022/04/06 08:10:58;;;;;;;3.70;3.30;;;;;;;20.27;42.15;95718.61;108087;1270;44289;-76
2022/04/06 08:13:29;;;;;;;5.00;3.70;;;;;;;18.58;43.03;95729.45;108137;1270;31704;-76
2022/04/06 08:16:00;;;;;;;4.00;3.60;;;;;;;16.91;46.04;95736.64;108045;1270;44825;-76
2022/04/06 08:18:31;;;;;;;5.80;5.20;;;;;;;15.86;47.83;95742.90;108153;1270;48543;-75
2022/04/06 08:21:02;;;;;;;6.30;5.30;;;;;;;14.75;50.30;95753.30;108164;1270;30535;-75
2022/04/06 08:23:33;;;;;;;6.00;5.40;;;;;;;13.72;52.65;95752.58;108047;1270;42111;-76
2022/04/06 08:26:04;;;;;;;7.60;5.30;;;;;;;13.34;54.38;95759.17;108093;1270;31553;-75
2022/04/06 08:28:36;;;;;;;6.00;5.40;;;;;;;13.08;55.46;95763.81;108015;1270;69875;-76
2022/04/06 08:31:07;;;;;;;6.10;5.30;;;;;;;12.87;56.48;95770.84;108091;1269;34181;-76
2022/04/06 08:33:38;;;;;;;5.40;4.80;;;;;;;12.14;57.83;95772.64;108045;1270;33740;-75
2022/04/06 08:36:09;;;;;;;5.70;4.90;;;;;;;11.59;59.41;95775.69;108136;1268;39983;-75
2022/04/06 08:38:40;;;;;;;5.50;4.60;;;;;;;11.19;60.67;95780.85;107953;1270;46389;-75
2022/04/06 08:41:11;;;;;;;6.60;4.70;;;;;;;11.09;61.52;95781.98;108005;1270;84952;-75
2022/04/06 08:43:42;;;;;;;4.70;3.70;;;;;;;11.01;62.60;95773.10;108084;1270;84872;-76
2022/04/06 08:46:14;;;;;;;4.20;3.40;;;;;;;10.77;63.34;95778.68;108171;1270;29961;-75
2022/04/06 08:48:48;;;;;;;5.60;4.50;;;;;;;10.81;63.83;95770.92;108116;1270;42605;-75
2022/04/06 08:51:20;;;;;;;3.80;3.00;;;;;;;11.07;63.69;95779.23;108117;1270;42932;-75
2022/04/06 08:53:51;;;;;;;3.10;2.50;;;;;;;11.88;64.13;95772.92;108025;1271;35790;-75
2022/04/06 08:56:23;;;;;;;4.10;3.70;;;;;;;13.23;60.27;95760.91;108018;1270;34345;-76
2022/04/06 08:58:54;;;;;;;4.10;3.20;;;;;;;14.44;59.95;95755.48;107963;1273;33801;-75
2022/04/06 09:01:27;;;;;;;4.50;2.50;;;;;;;15.61;55.22;95756.45;108039;1270;41296;-75
2022/04/06 09:03:58;;;;;;;3.70;3.10;;;;;;;15.41;53.80;95754.33;108034;1270;46477;-76
2022/04/06 09:06:32;;;;;;;3.90;3.40;;;;;;;15.76;54.20;95753.00;108030;1271;53707;-76
2022/04/06 09:09:03;;;;;;;3.40;2.80;;;;;;;16.09;53.56;95747.99;108077;1271;43170;-76
2022/04/06 09:11:43;;;;;;;3.80;3.10;;;;;;;16.29;52.59;95745.44;108150;1270;33086;-76
2022/04/06 09:14:15;;;;;;;3.40;3.10;;;;;;;15.54;52.91;95749.23;108016;1271;52017;-76
2022/04/06 09:16:45;;;;;;;4.40;2.50;;;;;;;14.66;52.80;95747.80;108064;1270;43286;-76
2022/04/06 09:19:17;;;;;;;4.50;3.20;;;;;;;13.63;55.15;95752.61;108068;1270;60032;-76
2022/04/06 09:21:48;;;;;;;3.30;2.90;;;;;;;13.08;56.72;95752.23;108063;1269;42024;-76
2022/04/06 09:24:21;;;;;;;5.10;3.80;;;;;;;12.39;58.04;95746.50;108055;1270;41197;-76
2022/04/06 09:27:01;;;;;;;3.50;2.60;;;;;;;11.83;59.52;95755.20;108117;1270;43166;-76
2022/04/06 09:29:34;;;;;;;4.50;3.30;;;;;;;11.66;60.66;95759.84;108137;1270;29787;-75
2022/04/06 09:32:10;;;;;;;3.60;2.60;;;;;;;11.66;61.32;95749.48;108081;1270;32084;-76
2022/04/06 09:34:42;;;;;;;4.70;4.00;;;;;;;11.54;62.14;95743.36;107932;1273;40238;-76
2022/04/06 09:37:33;;;;;;;4.30;3.80;;;;;;;11.63;62.29;95746.85;108050;1270;42645;-76
2022/04/06 09:40:11;;;;;;;4.50;3.60;;;;;;;11.96;62.21;95750.03;108016;1273;30968;-76
2022/04/06 09:42:52;;;;;;;4.30;2.80;;;;;;;12.06;62.01;95741.14;108090;1270;37061;-75
2022/04/06 09:48:20;;;;;;;4.30;3.60;;;;;;;11.83;63.32;95750.64;108041;1270;42838;-76
2022/04/06 09:51:00;;;;;;;4.40;3.70;;;;;;;12.16;63.01;95743.95;108047;1270;42746;-76
2022/04/06 09:53:34;;;;;;;3.60;2.70;;;;;;;12.30;62.29;95735.58;108021;1273;38739;-76
2022/04/06 09:56:07;;;;;;;4.00;2.80;;;;;;;12.30;61.99;95746.92;108005;1270;50034;-76
2022/04/06 09:58:38;;;;;;;3.80;2.60;;;;;;;12.39;63.20;95740.68;108092;1270;31955;-76
2022/04/06 10:01:09;;;;;;;3.60;2.80;;;;;;;12.56;62.10;95744.84;108085;1270;43233;-76
2022/04/06 10:03:42;;;;;;;4.10;2.90;;;;;;;12.34;61.73;95739.77;108051;1270;52817;-76
2022/04/06 10:06:13;;;;;;;3.10;2.80;;;;;;;12.25;62.71;95738.34;108060;1270;35404;-76
2022/04/06 10:08:45;;;;;;;3.10;2.50;;;;;;;12.35;62.63;95733.47;108099;1270;33464;-76
2022/04/06 10:11:18;;;;;;;3.00;2.60;;;;;;;12.32;62.07;95727.34;108136;1270;29113;-76
2022/04/06 10:13:49;;;;;;;3.00;1.90;;;;;;;12.07;61.97;95724.98;108025;1270;43619;-75
2022/04/06 10:16:21;;;;;;;3.50;2.90;;;;;;;11.74;62.80;95724.02;108077;1270;37413;-76
2022/04/06 10:18:54;;;;;;;4.20;2.80;;;;;;;11.69;64.06;95723.45;108053;1270;32107;-76
2022/04/06 10:21:35;;;;;;;4.20;2.70;;;;;;;11.76;64.11;95721.70;108070;1270;31740;-76
2022/04/06 10:24:23;;;;;;;3.30;2.20;;;;;;;11.90;64.61;95730.87;108009;1270;45599;-76
2022/04/06 10:27:05;;;;;;;2.40;1.60;;;;;;;12.06;63.58;95719.31;108183;1270;28464;-76
2022/04/06 10:30:16;;;;;;;3.20;2.60;;;;;;;12.06;62.88;95714.41;108039;1270;55032;-76
2022/04/06 10:32:49;;;;;;;3.00;2.00;;;;;;;12.15;62.93;95708.90;108035;1270;46440;-76
2022/04/06 10:35:22;;;;;;;2.40;2.10;;;;;;;12.16;62.53;95703.78;108047;1270;33670;-76
2022/04/06 10:38:09;;;;;;;3.30;2.60;;;;;;;12.09;62.80;95701.56;108137;1270;41098;-76
2022/04/06 10:41:08;;;;;;;2.80;2.30;;;;;;;12.40;63.16;95694.46;108042;1270;29677;-76
2022/04/06 10:43:53;;;;;;;2.00;1.70;;;;;;;12.46;61.69;95687.67;108050;1270;45647;-76
2022/04/06 10:46:41;;;;;;;2.10;1.60;;;;;;;12.39;61.42;95683.48;108040;1270;36712;-76
2022/04/06 10:49:16;;;;;;;2.80;2.20;;;;;;;12.55;61.48;95669.77;108040;1270;35648;-76
2022/04/06 10:51:48;;;;;;;1.50;1.20;;;;;;;12.55;60.94;95679.09;108085;1270;32031;-76
2022/04/06 10:54:46;;;;;;;2.10;1.90;;;;;;;12.54;61.32;95676.77;107885;1271;48237;-76
2022/04/06 10:57:17;;;;;;;2.40;1.90;;;;;;;12.70;61.23;95672.77;108139;1270;43650;-76
2022/04/06 11:00:15;;;;;;;2.50;1.60;;;;;;;12.68;60.03;95665.04;108071;1270;41412;-76
2022/04/06 11:02:51;;;;;;;1.50;1.30;;;;;;;12.67;60.74;95675.23;108037;1271;40212;-76
2022/04/06 11:05:57;;;;;;;2.80;1.90;;;;;;;12.59;60.40;95665.77;108032;1270;44820;-76
2022/04/06 11:11:46;;;;;;;3.30;1.70;;;;;;;12.51;61.00;95664.51;108116;1270;34105;-76
2022/04/06 11:14:30;;;;;;;1.60;1.00;;;;;;;12.47;60.53;95667.13;108036;1271;34661;-76
2022/04/06 11:17:02;;;;;;;1.80;1.40;;;;;;;12.35;60.47;95672.22;107994;1273;43819;-76
2022/04/06 11:19:33;;;;;;;1.40;1.00;;;;;;;12.33;60.24;95666.59;108159;1270;32776;-76
2022/04/06 11:22:05;;;;;;;1.20;1.10;;;;;;;12.25;60.17;95675.40;108108;1271;32180;-77
2022/04/06 11:24:39;;;;;;;2.50;1.50;;;;;;;12.31;61.05;95676.51;108093;1270;32419;-76
2022/04/06 11:27:10;;;;;;;0.80;0.70;;;;;;;12.26;60.43;95678.41;108105;1270;44239;-76
2022/04/06 11:29:41;;;;;;;2.60;1.00;;;;;;;12.16;60.25;95682.09;108085;1270;42383;-76
2022/04/06 11:32:12;;;;;;;1.20;0.80;;;;;;;12.16;60.29;95684.91;108090;1270;43452;-77
2022/04/06 11:34:43;;;;;;;1.30;0.70;;;;;;;12.24;60.69;95683.13;108092;1270;34660;-76
2022/04/06 11:37:14;;;;;;;1.60;0.90;;;;;;;12.38;60.47;95684.05;108063;1270;32045;-77
2022/04/06 11:39:46;;;;;;;1.10;0.80;;;;;;;12.51;60.25;95672.82;108101;1270;45157;-77
2022/04/06 11:42:19;;;;;;;1.30;0.80;;;;;;;12.56;60.40;95682.11;108149;1270;28769;-77
2022/04/06 11:44:50;;;;;;;0.70;0.70;;;;;;;12.82;60.27;95679.58;108136;1270;43407;-77
2022/04/06 11:47:31;;;;;;;1.10;0.90;;;;;;;13.00;59.48;95674.45;107947;1271;44265;-76
2022/04/06 11:50:05;;;;;;;0.80;0.60;;;;;;;13.26;59.43;95674.09;108081;1270;45255;-76
2022/04/06 11:52:40;;;;;;;1.20;0.70;;;;;;;13.50;58.77;95672.80;108105;1270;34798;-77
2022/04/06 11:55:11;;;;;;;0.50;0.50;;;;;;;13.65;58.95;95671.21;108035;1271;32757;-77
2022/04/06 11:57:45;;;;;;;1.20;0.90;;;;;;;13.60;57.84;95675.33;108118;1270;45654;-76
2022/04/06 12:00:19;;;;;;;1.20;1.10;;;;;;;13.39;57.27;95672.05;108106;1270;34463;-77
2022/04/06 12:02:56;;;;;;;1.20;1.10;;;;;;;13.34;58.13;95673.58;108062;1270;39445;-77
2022/04/06 12:05:27;;;;;;;1.20;0.70;;;;;;;13.29;56.81;95670.48;108089;1270;42578;-77